sensor_id;sensor_type;location;lat;lon;timestamp;P1;durP1;ratioP1;P2;durP2;ratioP2
20589;SDS011;10453;50.810;12.540;2023-03-05T00:00:53;13.77;;;4.30;;
20589;SDS011;10453;50.810;12.540;2023-03-05T00:05:10;15.63;;;4.10;;
20589;SDS011;10453;50.810;12.540;2023-03-05T00:09:28;14.10;;;4.85;;
20589;SDS011;10453;50.810;12.540;2023-03-05T00:13:45;14.90;;;6.45;;
20589;SDS011;10453;50.810;12.540;2023-03-05T00:18:02;18.03;;;6.30;;
20589;SDS011;10453;50.810;12.540;2023-03-05T00:22:19;14.85;;;6.70;;
20589;SDS011;10453;50.810;12.540;2023-03-05T00:26:37;15.75;;;5.93;;
20589;SDS011;10453;50.810;12.540;2023-03-05T00:30:58;14.95;;;6.50;;
20589;SDS011;10453;50.810;12.540;2023-03-05T00:35:16;16.50;;;5.82;;
20589;SDS011;10453;50.810;12.540;2023-03-05T00:39:34;11.13;;;5.07;;
20589;SDS011;10453;50.810;12.540;2023-03-05T00:43:51;14.95;;;6.30;;
20589;SDS011;10453;50.810;12.540;2023-03-05T00:48:08;17.98;;;5.82;;
20589;SDS011;10453;50.810;12.540;2023-03-05T00:52:25;16.03;;;6.60;;
20589;SDS011;10453;50.810;12.540;2023-03-05T00:56:43;19.45;;;6.75;;
20589;SDS011;10453;50.810;12.540;2023-03-05T01:01:00;16.90;;;6.43;;
20589;SDS011;10453;50.810;12.540;2023-03-05T01:05:19;20.08;;;6.15;;
20589;SDS011;10453;50.810;12.540;2023-03-05T01:09:36;15.93;;;5.30;;
20589;SDS011;10453;50.810;12.540;2023-03-05T01:13:53;14.32;;;5.00;;
20589;SDS011;10453;50.810;12.540;2023-03-05T01:18:11;12.88;;;4.90;;
20589;SDS011;10453;50.810;12.540;2023-03-05T01:22:29;12.57;;;5.50;;
20589;SDS011;10453;50.810;12.540;2023-03-05T01:26:46;11.43;;;4.43;;
20589;SDS011;10453;50.810;12.540;2023-03-05T01:31:08;16.60;;;4.45;;
20589;SDS011;10453;50.810;12.540;2023-03-05T01:35:27;16.42;;;5.82;;
20589;SDS011;10453;50.810;12.540;2023-03-05T01:39:45;15.23;;;5.60;;
20589;SDS011;10453;50.810;12.540;2023-03-05T01:44:02;10.65;;;5.30;;
20589;SDS011;10453;50.810;12.540;2023-03-05T01:48:19;13.93;;;5.23;;
20589;SDS011;10453;50.810;12.540;2023-03-05T01:52:38;12.75;;;4.63;;
20589;SDS011;10453;50.810;12.540;2023-03-05T01:57:00;14.43;;;5.25;;
20589;SDS011;10453;50.810;12.540;2023-03-05T02:01:22;15.93;;;6.13;;
20589;SDS011;10453;50.810;12.540;2023-03-05T02:05:40;14.90;;;5.77;;
20589;SDS011;10453;50.810;12.540;2023-03-05T02:10:00;20.92;;;5.32;;
20589;SDS011;10453;50.810;12.540;2023-03-05T02:14:17;19.67;;;5.20;;
20589;SDS011;10453;50.810;12.540;2023-03-05T02:18:36;15.48;;;5.13;;
20589;SDS011;10453;50.810;12.540;2023-03-05T02:22:53;16.10;;;4.63;;
20589;SDS011;10453;50.810;12.540;2023-03-05T02:27:10;10.85;;;4.70;;
20589;SDS011;10453;50.810;12.540;2023-03-05T02:31:29;14.57;;;4.57;;
20589;SDS011;10453;50.810;12.540;2023-03-05T02:35:47;14.63;;;5.15;;
20589;SDS011;10453;50.810;12.540;2023-03-05T02:40:04;14.95;;;4.40;;
20589;SDS011;10453;50.810;12.540;2023-03-05T02:44:22;9.75;;;3.80;;
20589;SDS011;10453;50.810;12.540;2023-03-05T02:48:39;14.68;;;4.50;;
20589;SDS011;10453;50.810;12.540;2023-03-05T02:52:56;9.20;;;4.07;;
20589;SDS011;10453;50.810;12.540;2023-03-05T02:57:13;14.38;;;4.75;;
20589;SDS011;10453;50.810;12.540;2023-03-05T03:01:30;9.57;;;4.15;;
20589;SDS011;10453;50.810;12.540;2023-03-05T03:05:47;14.32;;;3.95;;
20589;SDS011;10453;50.810;12.540;2023-03-05T03:10:05;9.40;;;3.15;;
20589;SDS011;10453;50.810;12.540;2023-03-05T03:14:22;5.32;;;3.03;;
20589;SDS011;10453;50.810;12.540;2023-03-05T03:18:40;12.15;;;3.38;;
20589;SDS011;10453;50.810;12.540;2023-03-05T03:22:57;10.80;;;3.27;;
20589;SDS011;10453;50.810;12.540;2023-03-05T03:27:14;6.95;;;3.08;;
20589;SDS011;10453;50.810;12.540;2023-03-05T03:31:31;8.95;;;3.55;;
20589;SDS011;10453;50.810;12.540;2023-03-05T03:35:48;7.97;;;3.35;;
20589;SDS011;10453;50.810;12.540;2023-03-05T03:40:06;7.60;;;3.42;;
20589;SDS011;10453;50.810;12.540;2023-03-05T03:44:24;10.45;;;3.22;;
20589;SDS011;10453;50.810;12.540;2023-03-05T03:48:41;8.85;;;2.50;;
20589;SDS011;10453;50.810;12.540;2023-03-05T03:52:58;6.60;;;1.70;;
20589;SDS011;10453;50.810;12.540;2023-03-05T03:57:15;6.30;;;1.85;;
20589;SDS011;10453;50.810;12.540;2023-03-05T04:01:32;6.65;;;1.52;;
20589;SDS011;10453;50.810;12.540;2023-03-05T04:05:50;7.88;;;1.50;;
20589;SDS011;10453;50.810;12.540;2023-03-05T04:10:07;5.55;;;1.40;;
20589;SDS011;10453;50.810;12.540;2023-03-05T04:14:24;6.05;;;1.27;;
20589;SDS011;10453;50.810;12.540;2023-03-05T04:18:42;6.47;;;1.63;;
20589;SDS011;10453;50.810;12.540;2023-03-05T04:23:00;6.60;;;1.00;;
20589;SDS011;10453;50.810;12.540;2023-03-05T04:27:17;6.00;;;1.30;;
20589;SDS011;10453;50.810;12.540;2023-03-05T04:31:34;8.38;;;1.73;;
20589;SDS011;10453;50.810;12.540;2023-03-05T04:35:52;7.90;;;1.60;;
20589;SDS011;10453;50.810;12.540;2023-03-05T04:40:09;8.95;;;1.35;;
20589;SDS011;10453;50.810;12.540;2023-03-05T04:44:26;4.72;;;1.30;;
20589;SDS011;10453;50.810;12.540;2023-03-05T04:48:44;4.47;;;1.33;;
20589;SDS011;10453;50.810;12.540;2023-03-05T04:53:01;7.95;;;1.63;;
20589;SDS011;10453;50.810;12.540;2023-03-05T05:01:38;3.50;;;1.05;;
20589;SDS011;10453;50.810;12.540;2023-03-05T05:05:56;5.30;;;1.40;;
20589;SDS011;10453;50.810;12.540;2023-03-05T05:10:15;3.33;;;1.30;;
20589;SDS011;10453;50.810;12.540;2023-03-05T05:14:33;4.88;;;1.55;;
20589;SDS011;10453;50.810;12.540;2023-03-05T05:18:50;5.87;;;1.00;;
20589;SDS011;10453;50.810;12.540;2023-03-05T05:23:07;7.35;;;1.70;;
20589;SDS011;10453;50.810;12.540;2023-03-05T05:27:24;8.80;;;1.65;;
20589;SDS011;10453;50.810;12.540;2023-03-05T05:31:41;4.63;;;1.42;;
20589;SDS011;10453;50.810;12.540;2023-03-05T05:36:00;3.33;;;1.40;;
20589;SDS011;10453;50.810;12.540;2023-03-05T05:40:19;3.47;;;1.45;;
20589;SDS011;10453;50.810;12.540;2023-03-05T05:44:36;5.63;;;1.50;;
20589;SDS011;10453;50.810;12.540;2023-03-05T05:48:53;5.22;;;1.75;;
20589;SDS011;10453;50.810;12.540;2023-03-05T05:53:10;3.22;;;1.35;;
20589;SDS011;10453;50.810;12.540;2023-03-05T05:57:27;6.05;;;1.45;;
20589;SDS011;10453;50.810;12.540;2023-03-05T06:01:45;5.18;;;1.70;;
20589;SDS011;10453;50.810;12.540;2023-03-05T06:06:02;5.40;;;1.80;;
20589;SDS011;10453;50.810;12.540;2023-03-05T06:10:24;5.20;;;2.22;;
20589;SDS011;10453;50.810;12.540;2023-03-05T06:14:41;2.70;;;1.60;;
20589;SDS011;10453;50.810;12.540;2023-03-05T06:18:58;8.98;;;2.58;;
20589;SDS011;10453;50.810;12.540;2023-03-05T06:23:20;10.07;;;1.80;;
20589;SDS011;10453;50.810;12.540;2023-03-05T06:27:37;5.57;;;1.80;;
20589;SDS011;10453;50.810;12.540;2023-03-05T06:31:54;3.20;;;1.80;;
20589;SDS011;10453;50.810;12.540;2023-03-05T06:36:13;6.05;;;1.88;;
20589;SDS011;10453;50.810;12.540;2023-03-05T06:40:31;3.63;;;1.80;;
20589;SDS011;10453;50.810;12.540;2023-03-05T06:44:48;5.22;;;2.20;;
20589;SDS011;10453;50.810;12.540;2023-03-05T06:49:06;6.75;;;2.20;;
20589;SDS011;10453;50.810;12.540;2023-03-05T06:53:25;5.10;;;1.98;;
20589;SDS011;10453;50.810;12.540;2023-03-05T06:57:43;5.90;;;2.00;;
20589;SDS011;10453;50.810;12.540;2023-03-05T07:02:00;7.80;;;1.90;;
20589;SDS011;10453;50.810;12.540;2023-03-05T07:06:17;6.65;;;1.90;;
20589;SDS011;10453;50.810;12.540;2023-03-05T07:10:38;6.32;;;2.13;;
20589;SDS011;10453;50.810;12.540;2023-03-05T07:14:57;6.03;;;1.98;;
20589;SDS011;10453;50.810;12.540;2023-03-05T07:19:14;4.05;;;1.30;;
20589;SDS011;10453;50.810;12.540;2023-03-05T07:23:32;5.15;;;1.45;;
20589;SDS011;10453;50.810;12.540;2023-03-05T07:27:49;5.18;;;1.25;;
20589;SDS011;10453;50.810;12.540;2023-03-05T07:32:07;3.63;;;1.20;;
20589;SDS011;10453;50.810;12.540;2023-03-05T07:36:25;3.72;;;1.23;;
20589;SDS011;10453;50.810;12.540;2023-03-05T07:40:42;5.30;;;1.30;;
20589;SDS011;10453;50.810;12.540;2023-03-05T07:44:59;3.63;;;1.40;;
20589;SDS011;10453;50.810;12.540;2023-03-05T07:49:16;2.78;;;1.00;;
20589;SDS011;10453;50.810;12.540;2023-03-05T07:53:33;5.72;;;1.60;;
20589;SDS011;10453;50.810;12.540;2023-03-05T07:57:51;5.13;;;1.45;;
20589;SDS011;10453;50.810;12.540;2023-03-05T08:02:09;2.95;;;1.75;;
20589;SDS011;10453;50.810;12.540;2023-03-05T08:06:27;7.70;;;1.92;;
20589;SDS011;10453;50.810;12.540;2023-03-05T08:10:45;2.73;;;1.30;;
20589;SDS011;10453;50.810;12.540;2023-03-05T08:15:02;4.60;;;1.02;;
20589;SDS011;10453;50.810;12.540;2023-03-05T08:19:19;1.55;;;0.85;;
20589;SDS011;10453;50.810;12.540;2023-03-05T08:23:37;5.17;;;0.93;;
20589;SDS011;10453;50.810;12.540;2023-03-05T08:27:54;3.00;;;1.00;;
20589;SDS011;10453;50.810;12.540;2023-03-05T08:32:11;4.32;;;1.10;;
20589;SDS011;10453;50.810;12.540;2023-03-05T08:36:32;4.88;;;1.75;;
20589;SDS011;10453;50.810;12.540;2023-03-05T08:40:50;5.47;;;2.10;;
20589;SDS011;10453;50.810;12.540;2023-03-05T08:45:07;3.97;;;1.17;;
20589;SDS011;10453;50.810;12.540;2023-03-05T08:49:25;5.97;;;1.50;;
20589;SDS011;10453;50.810;12.540;2023-03-05T08:53:42;4.88;;;1.38;;
20589;SDS011;10453;50.810;12.540;2023-03-05T08:58:00;4.55;;;1.95;;
20589;SDS011;10453;50.810;12.540;2023-03-05T09:02:17;8.75;;;2.13;;
20589;SDS011;10453;50.810;12.540;2023-03-05T09:06:34;4.63;;;1.30;;
20589;SDS011;10453;50.810;12.540;2023-03-05T09:10:55;4.82;;;1.20;;
20589;SDS011;10453;50.810;12.540;2023-03-05T09:15:13;4.50;;;2.10;;
20589;SDS011;10453;50.810;12.540;2023-03-05T09:19:30;6.00;;;1.90;;
20589;SDS011;10453;50.810;12.540;2023-03-05T09:23:47;5.25;;;2.67;;
20589;SDS011;10453;50.810;12.540;2023-03-05T09:28:05;5.22;;;1.70;;
20589;SDS011;10453;50.810;12.540;2023-03-05T09:32:22;4.38;;;1.23;;
20589;SDS011;10453;50.810;12.540;2023-03-05T09:36:39;4.60;;;1.80;;
20589;SDS011;10453;50.810;12.540;2023-03-05T09:40:58;7.82;;;2.90;;
20589;SDS011;10453;50.810;12.540;2023-03-05T09:54:53;13.80;;;6.53;;
20589;SDS011;10453;50.810;12.540;2023-03-05T10:03:49;7.15;;;3.88;;
20589;SDS011;10453;50.810;12.540;2023-03-05T10:08:07;10.07;;;5.00;;
20589;SDS011;10453;50.810;12.540;2023-03-05T10:26:19;9.80;;;4.88;;
20589;SDS011;10453;50.810;12.540;2023-03-05T10:48:49;4.43;;;2.83;;
20589;SDS011;10453;50.810;12.540;2023-03-05T10:53:14;4.82;;;2.70;;
20589;SDS011;10453;50.810;12.540;2023-03-05T10:57:57;5.28;;;3.10;;
20589;SDS011;10453;50.810;12.540;2023-03-05T11:02:15;4.63;;;2.53;;
20589;SDS011;10453;50.810;12.540;2023-03-05T11:06:40;6.30;;;2.73;;
20589;SDS011;10453;50.810;12.540;2023-03-05T11:11:09;7.63;;;3.00;;
20589;SDS011;10453;50.810;12.540;2023-03-05T11:15:34;4.30;;;2.55;;
20589;SDS011;10453;50.810;12.540;2023-03-05T11:19:51;7.30;;;2.72;;
20589;SDS011;10453;50.810;12.540;2023-03-05T11:24:12;7.70;;;3.03;;
20589;SDS011;10453;50.810;12.540;2023-03-05T11:28:53;5.90;;;2.15;;
20589;SDS011;10453;50.810;12.540;2023-03-05T11:33:14;3.22;;;2.08;;
20589;SDS011;10453;50.810;12.540;2023-03-05T11:37:35;3.75;;;2.20;;
20589;SDS011;10453;50.810;12.540;2023-03-05T11:41:56;9.38;;;5.18;;
20589;SDS011;10453;50.810;12.540;2023-03-05T11:46:15;12.27;;;6.15;;
20589;SDS011;10453;50.810;12.540;2023-03-05T11:50:34;7.30;;;4.22;;
20589;SDS011;10453;50.810;12.540;2023-03-05T11:55:04;5.63;;;2.95;;
20589;SDS011;10453;50.810;12.540;2023-03-05T11:59:30;5.28;;;2.38;;
20589;SDS011;10453;50.810;12.540;2023-03-05T12:03:51;5.57;;;2.60;;
20589;SDS011;10453;50.810;12.540;2023-03-05T12:08:10;5.77;;;2.20;;
20589;SDS011;10453;50.810;12.540;2023-03-05T12:12:40;5.13;;;2.47;;
20589;SDS011;10453;50.810;12.540;2023-03-05T12:17:16;5.10;;;2.30;;
20589;SDS011;10453;50.810;12.540;2023-03-05T12:21:44;8.77;;;3.33;;
20589;SDS011;10453;50.810;12.540;2023-03-05T12:26:06;8.93;;;3.25;;
20589;SDS011;10453;50.810;12.540;2023-03-05T12:52:37;10.88;;;6.18;;
20589;SDS011;10453;50.810;12.540;2023-03-05T12:57:01;8.82;;;4.30;;
20589;SDS011;10453;50.810;12.540;2023-03-05T13:01:35;6.07;;;3.70;;
20589;SDS011;10453;50.810;12.540;2023-03-05T13:06:01;5.35;;;2.70;;
20589;SDS011;10453;50.810;12.540;2023-03-05T13:10:25;6.90;;;2.10;;
20589;SDS011;10453;50.810;12.540;2023-03-05T13:14:44;3.50;;;1.80;;
20589;SDS011;10453;50.810;12.540;2023-03-05T13:19:03;3.08;;;2.05;;
20589;SDS011;10453;50.810;12.540;2023-03-05T13:23:30;2.47;;;1.95;;
20589;SDS011;10453;50.810;12.540;2023-03-05T13:27:49;6.93;;;3.90;;
20589;SDS011;10453;50.810;12.540;2023-03-05T13:32:25;8.55;;;4.20;;
20589;SDS011;10453;50.810;12.540;2023-03-05T13:36:53;9.18;;;3.60;;
20589;SDS011;10453;50.810;12.540;2023-03-05T13:45:31;11.40;;;5.72;;
20589;SDS011;10453;50.810;12.540;2023-03-05T13:49:59;6.90;;;4.47;;
20589;SDS011;10453;50.810;12.540;2023-03-05T13:54:20;4.40;;;2.80;;
20589;SDS011;10453;50.810;12.540;2023-03-05T14:03:13;3.08;;;2.30;;
20589;SDS011;10453;50.810;12.540;2023-03-05T14:07:37;5.28;;;2.13;;
20589;SDS011;10453;50.810;12.540;2023-03-05T14:11:59;6.70;;;2.25;;
20589;SDS011;10453;50.810;12.540;2023-03-05T14:16:24;10.27;;;5.03;;
20589;SDS011;10453;50.810;12.540;2023-03-05T14:21:19;4.88;;;2.08;;
20589;SDS011;10453;50.810;12.540;2023-03-05T14:29:56;4.82;;;2.20;;
20589;SDS011;10453;50.810;12.540;2023-03-05T14:34:18;4.07;;;2.00;;
20589;SDS011;10453;50.810;12.540;2023-03-05T14:38:39;4.88;;;2.20;;
20589;SDS011;10453;50.810;12.540;2023-03-05T14:42:59;4.80;;;2.17;;
20589;SDS011;10453;50.810;12.540;2023-03-05T14:47:17;3.67;;;2.25;;
20589;SDS011;10453;50.810;12.540;2023-03-05T14:51:39;7.35;;;3.10;;
20589;SDS011;10453;50.810;12.540;2023-03-05T14:55:58;9.73;;;4.00;;
20589;SDS011;10453;50.810;12.540;2023-03-05T15:04:34;6.80;;;3.05;;
20589;SDS011;10453;50.810;12.540;2023-03-05T15:08:51;9.77;;;3.90;;
20589;SDS011;10453;50.810;12.540;2023-03-05T15:13:08;9.52;;;4.10;;
20589;SDS011;10453;50.810;12.540;2023-03-05T15:21:49;8.38;;;3.35;;
20589;SDS011;10453;50.810;12.540;2023-03-05T15:26:07;4.95;;;3.15;;
20589;SDS011;10453;50.810;12.540;2023-03-05T15:30:29;4.50;;;2.65;;
20589;SDS011;10453;50.810;12.540;2023-03-05T15:34:51;12.35;;;6.15;;
20589;SDS011;10453;50.810;12.540;2023-03-05T15:39:08;11.70;;;6.07;;
20589;SDS011;10453;50.810;12.540;2023-03-05T15:43:28;10.30;;;5.38;;
20589;SDS011;10453;50.810;12.540;2023-03-05T15:47:48;9.82;;;4.85;;
20589;SDS011;10453;50.810;12.540;2023-03-05T15:52:06;6.88;;;4.32;;
20589;SDS011;10453;50.810;12.540;2023-03-05T15:56:23;5.65;;;3.03;;
20589;SDS011;10453;50.810;12.540;2023-03-05T16:00:41;4.93;;;2.50;;
20589;SDS011;10453;50.810;12.540;2023-03-05T16:04:58;4.25;;;2.75;;
20589;SDS011;10453;50.810;12.540;2023-03-05T16:09:16;6.88;;;3.20;;
20589;SDS011;10453;50.810;12.540;2023-03-05T16:13:36;4.47;;;2.50;;
20589;SDS011;10453;50.810;12.540;2023-03-05T16:17:53;7.45;;;2.88;;
20589;SDS011;10453;50.810;12.540;2023-03-05T16:22:12;4.78;;;3.35;;
20589;SDS011;10453;50.810;12.540;2023-03-05T16:26:30;7.77;;;4.07;;
20589;SDS011;10453;50.810;12.540;2023-03-05T16:30:53;9.65;;;6.40;;
20589;SDS011;10453;50.810;12.540;2023-03-05T16:35:11;5.85;;;3.00;;
20589;SDS011;10453;50.810;12.540;2023-03-05T16:39:29;3.08;;;2.30;;
20589;SDS011;10453;50.810;12.540;2023-03-05T16:43:46;3.80;;;2.72;;
20589;SDS011;10453;50.810;12.540;2023-03-05T16:48:04;5.57;;;2.25;;
20589;SDS011;10453;50.810;12.540;2023-03-05T16:52:21;3.60;;;2.50;;
20589;SDS011;10453;50.810;12.540;2023-03-05T16:56:38;5.47;;;2.55;;
20589;SDS011;10453;50.810;12.540;2023-03-05T17:00:56;5.63;;;2.72;;
20589;SDS011;10453;50.810;12.540;2023-03-05T17:05:13;3.80;;;2.40;;
20589;SDS011;10453;50.810;12.540;2023-03-05T17:09:30;3.20;;;2.35;;
20589;SDS011;10453;50.810;12.540;2023-03-05T17:13:48;6.53;;;4.07;;
20589;SDS011;10453;50.810;12.540;2023-03-05T17:18:05;6.97;;;3.92;;
20589;SDS011;10453;50.810;12.540;2023-03-05T17:22:23;7.68;;;4.32;;
20589;SDS011;10453;50.810;12.540;2023-03-05T17:26:40;8.57;;;4.47;;
20589;SDS011;10453;50.810;12.540;2023-03-05T17:30:58;6.57;;;4.25;;
20589;SDS011;10453;50.810;12.540;2023-03-05T17:35:18;7.38;;;3.53;;
20589;SDS011;10453;50.810;12.540;2023-03-05T17:39:38;6.35;;;4.10;;
20589;SDS011;10453;50.810;12.540;2023-03-05T17:43:56;7.85;;;3.40;;
20589;SDS011;10453;50.810;12.540;2023-03-05T17:48:13;5.72;;;3.40;;
20589;SDS011;10453;50.810;12.540;2023-03-05T17:52:32;5.93;;;3.40;;
20589;SDS011;10453;50.810;12.540;2023-03-05T17:56:52;7.47;;;3.85;;
20589;SDS011;10453;50.810;12.540;2023-03-05T18:01:10;7.53;;;5.32;;
20589;SDS011;10453;50.810;12.540;2023-03-05T18:05:28;19.63;;;10.07;;
20589;SDS011;10453;50.810;12.540;2023-03-05T18:09:46;5.80;;;2.93;;
20589;SDS011;10453;50.810;12.540;2023-03-05T18:14:03;7.32;;;3.63;;
20589;SDS011;10453;50.810;12.540;2023-03-05T18:18:20;10.27;;;5.37;;
20589;SDS011;10453;50.810;12.540;2023-03-05T18:22:38;10.07;;;6.15;;
20589;SDS011;10453;50.810;12.540;2023-03-05T18:26:55;7.95;;;4.75;;
20589;SDS011;10453;50.810;12.540;2023-03-05T18:31:12;6.10;;;3.88;;
20589;SDS011;10453;50.810;12.540;2023-03-05T18:35:30;7.30;;;3.63;;
20589;SDS011;10453;50.810;12.540;2023-03-05T18:39:49;8.63;;;4.63;;
20589;SDS011;10453;50.810;12.540;2023-03-05T18:44:06;5.85;;;3.10;;
20589;SDS011;10453;50.810;12.540;2023-03-05T18:48:24;6.32;;;3.17;;
20589;SDS011;10453;50.810;12.540;2023-03-05T18:52:42;7.27;;;3.03;;
20589;SDS011;10453;50.810;12.540;2023-03-05T18:57:00;6.03;;;3.17;;
20589;SDS011;10453;50.810;12.540;2023-03-05T19:01:17;7.97;;;4.13;;
20589;SDS011;10453;50.810;12.540;2023-03-05T19:05:36;6.85;;;3.92;;
20589;SDS011;10453;50.810;12.540;2023-03-05T19:09:54;8.90;;;5.35;;
20589;SDS011;10453;50.810;12.540;2023-03-05T19:14:15;12.10;;;6.25;;
20589;SDS011;10453;50.810;12.540;2023-03-05T19:18:34;12.68;;;7.55;;
20589;SDS011;10453;50.810;12.540;2023-03-05T19:22:58;8.70;;;5.40;;
20589;SDS011;10453;50.810;12.540;2023-03-05T19:27:16;8.02;;;5.45;;
20589;SDS011;10453;50.810;12.540;2023-03-05T19:31:35;8.48;;;4.43;;
20589;SDS011;10453;50.810;12.540;2023-03-05T19:35:53;6.20;;;4.30;;
20589;SDS011;10453;50.810;12.540;2023-03-05T19:40:11;6.23;;;4.20;;
20589;SDS011;10453;50.810;12.540;2023-03-05T19:44:29;5.97;;;3.90;;
20589;SDS011;10453;50.810;12.540;2023-03-05T19:48:47;6.30;;;3.47;;
20589;SDS011;10453;50.810;12.540;2023-03-05T19:53:05;6.55;;;4.22;;
20589;SDS011;10453;50.810;12.540;2023-03-05T19:57:22;8.65;;;5.18;;
20589;SDS011;10453;50.810;12.540;2023-03-05T20:01:39;10.60;;;6.13;;
20589;SDS011;10453;50.810;12.540;2023-03-05T20:05:56;7.63;;;4.75;;
20589;SDS011;10453;50.810;12.540;2023-03-05T20:10:14;7.43;;;4.43;;
20589;SDS011;10453;50.810;12.540;2023-03-05T20:14:32;7.00;;;4.43;;
20589;SDS011;10453;50.810;12.540;2023-03-05T20:18:50;8.93;;;5.32;;
20589;SDS011;10453;50.810;12.540;2023-03-05T20:23:10;11.02;;;6.10;;
20589;SDS011;10453;50.810;12.540;2023-03-05T20:27:28;7.83;;;5.43;;
20589;SDS011;10453;50.810;12.540;2023-03-05T20:31:45;9.10;;;5.22;;
20589;SDS011;10453;50.810;12.540;2023-03-05T20:36:05;7.65;;;4.60;;
20589;SDS011;10453;50.810;12.540;2023-03-05T20:40:24;9.85;;;5.07;;
20589;SDS011;10453;50.810;12.540;2023-03-05T20:44:42;10.25;;;5.25;;
20589;SDS011;10453;50.810;12.540;2023-03-05T20:49:01;10.45;;;5.50;;
20589;SDS011;10453;50.810;12.540;2023-03-05T20:53:19;7.72;;;4.78;;
20589;SDS011;10453;50.810;12.540;2023-03-05T20:57:37;9.48;;;5.18;;
20589;SDS011;10453;50.810;12.540;2023-03-05T21:01:55;7.35;;;4.97;;
20589;SDS011;10453;50.810;12.540;2023-03-05T21:06:12;9.40;;;5.90;;
20589;SDS011;10453;50.810;12.540;2023-03-05T21:10:30;9.70;;;6.47;;
20589;SDS011;10453;50.810;12.540;2023-03-05T21:14:47;9.45;;;6.25;;
20589;SDS011;10453;50.810;12.540;2023-03-05T21:19:04;8.98;;;5.78;;
20589;SDS011;10453;50.810;12.540;2023-03-05T21:23:21;9.52;;;5.70;;
20589;SDS011;10453;50.810;12.540;2023-03-05T21:27:39;10.13;;;5.85;;
20589;SDS011;10453;50.810;12.540;2023-03-05T21:31:56;7.53;;;5.03;;
20589;SDS011;10453;50.810;12.540;2023-03-05T21:36:13;8.48;;;5.15;;
20589;SDS011;10453;50.810;12.540;2023-03-05T21:40:34;8.07;;;5.30;;
20589;SDS011;10453;50.810;12.540;2023-03-05T21:44:53;8.60;;;5.20;;
20589;SDS011;10453;50.810;12.540;2023-03-05T21:49:10;7.50;;;4.90;;
20589;SDS011;10453;50.810;12.540;2023-03-05T21:53:27;8.25;;;5.47;;
20589;SDS011;10453;50.810;12.540;2023-03-05T21:57:45;9.82;;;5.15;;
20589;SDS011;10453;50.810;12.540;2023-03-05T22:02:02;9.10;;;5.35;;
20589;SDS011;10453;50.810;12.540;2023-03-05T22:06:20;9.70;;;6.15;;
20589;SDS011;10453;50.810;12.540;2023-03-05T22:10:38;10.73;;;6.20;;
20589;SDS011;10453;50.810;12.540;2023-03-05T22:14:56;10.95;;;5.45;;
20589;SDS011;10453;50.810;12.540;2023-03-05T22:19:14;11.20;;;6.13;;
20589;SDS011;10453;50.810;12.540;2023-03-05T22:23:31;9.80;;;6.47;;
20589;SDS011;10453;50.810;12.540;2023-03-05T22:27:50;9.43;;;5.75;;
20589;SDS011;10453;50.810;12.540;2023-03-05T22:32:07;9.95;;;6.15;;
20589;SDS011;10453;50.810;12.540;2023-03-05T22:36:24;13.50;;;6.18;;
20589;SDS011;10453;50.810;12.540;2023-03-05T22:40:42;10.07;;;6.22;;
20589;SDS011;10453;50.810;12.540;2023-03-05T22:45:01;11.02;;;6.25;;
20589;SDS011;10453;50.810;12.540;2023-03-05T22:49:18;13.00;;;6.20;;
20589;SDS011;10453;50.810;12.540;2023-03-05T22:53:35;10.85;;;6.65;;
20589;SDS011;10453;50.810;12.540;2023-03-05T22:57:52;9.07;;;6.33;;
20589;SDS011;10453;50.810;12.540;2023-03-05T23:02:09;13.30;;;7.18;;
20589;SDS011;10453;50.810;12.540;2023-03-05T23:06:27;12.20;;;6.90;;
20589;SDS011;10453;50.810;12.540;2023-03-05T23:10:44;11.55;;;7.43;;
20589;SDS011;10453;50.810;12.540;2023-03-05T23:15:02;13.18;;;7.13;;
20589;SDS011;10453;50.810;12.540;2023-03-05T23:19:21;12.27;;;8.02;;
20589;SDS011;10453;50.810;12.540;2023-03-05T23:23:38;15.35;;;8.13;;
20589;SDS011;10453;50.810;12.540;2023-03-05T23:27:56;15.07;;;8.18;;
20589;SDS011;10453;50.810;12.540;2023-03-05T23:32:13;16.95;;;9.20;;
20589;SDS011;10453;50.810;12.540;2023-03-05T23:36:30;15.95;;;9.02;;
20589;SDS011;10453;50.810;12.540;2023-03-05T23:40:49;17.48;;;8.88;;
20589;SDS011;10453;50.810;12.540;2023-03-05T23:45:10;15.82;;;9.50;;
20589;SDS011;10453;50.810;12.540;2023-03-05T23:49:28;15.57;;;8.82;;
20589;SDS011;10453;50.810;12.540;2023-03-05T23:53:46;18.38;;;9.18;;
